sensor_id;sensor_type;location;lat;lon;timestamp;pressure;altitude;pressure_sealevel;temperature;humidity
37486;BME280;23341;50.296;18.960;2023-04-19T00:00:56;52065.69;;;-144.43;100.00
37486;BME280;23341;50.296;18.960;2023-04-19T00:06:01;52117.69;;;-144.43;100.00
37486;BME280;23341;50.296;18.960;2023-04-19T00:11:07;52069.69;;;-144.43;100.00
37486;BME280;23341;50.296;18.960;2023-04-19T00:16:11;52101.69;;;-144.43;100.00
37486;BME280;23341;50.296;18.960;2023-04-19T00:21:16;52065.69;;;-144.43;100.00
37486;BME280;23341;50.296;18.960;2023-04-19T00:26:21;52081.69;;;-144.43;100.00
37486;BME280;23341;50.296;18.960;2023-04-19T00:31:27;52033.69;;;-144.43;100.00
37486;BME280;23341;50.296;18.960;2023-04-19T00:36:31;52003.69;;;-144.43;100.00
37486;BME280;23341;50.296;18.960;2023-04-19T00:41:37;52029.69;;;-144.43;100.00
37486;BME280;23341;50.296;18.960;2023-04-19T00:46:42;52041.69;;;-144.43;100.00
37486;BME280;23341;50.296;18.960;2023-04-19T00:51:47;51983.69;;;-144.43;100.00
37486;BME280;23341;50.296;18.960;2023-04-19T00:56:53;51965.69;;;-144.43;100.00
37486;BME280;23341;50.296;18.960;2023-04-19T01:01:58;51935.69;;;-144.43;100.00
37486;BME280;23341;50.296;18.960;2023-04-19T01:07:04;51929.72;;;-144.43;100.00
37486;BME280;23341;50.296;18.960;2023-04-19T01:12:10;51929.72;;;-144.43;100.00
37486;BME280;23341;50.296;18.960;2023-04-19T01:17:17;51881.72;;;-144.43;100.00
37486;BME280;23341;50.296;18.960;2023-04-19T01:22:23;51889.72;;;-144.43;100.00
37486;BME280;23341;50.296;18.960;2023-04-19T01:27:27;51887.72;;;-144.43;100.00
37486;BME280;23341;50.296;18.960;2023-04-19T01:32:32;51877.72;;;-144.43;100.00
37486;BME280;23341;50.296;18.960;2023-04-19T01:37:38;51847.72;;;-144.43;100.00
37486;BME280;23341;50.296;18.960;2023-04-19T01:42:44;51885.72;;;-144.43;100.00
37486;BME280;23341;50.296;18.960;2023-04-19T01:47:49;51853.72;;;-144.43;100.00
37486;BME280;23341;50.296;18.960;2023-04-19T01:52:54;51849.72;;;-144.43;100.00
37486;BME280;23341;50.296;18.960;2023-04-19T01:57:58;51865.72;;;-144.43;100.00
37486;BME280;23341;50.296;18.960;2023-04-19T02:03:03;51841.72;;;-144.43;100.00
37486;BME280;23341;50.296;18.960;2023-04-19T02:08:09;51827.72;;;-144.43;100.00
37486;BME280;23341;50.296;18.960;2023-04-19T02:13:13;51845.72;;;-144.43;100.00
37486;BME280;23341;50.296;18.960;2023-04-19T02:18:18;51787.72;;;-144.43;100.00
37486;BME280;23341;50.296;18.960;2023-04-19T02:23:24;51825.72;;;-144.43;100.00
37486;BME280;23341;50.296;18.960;2023-04-19T02:28:28;51813.72;;;-144.43;100.00
37486;BME280;23341;50.296;18.960;2023-04-19T02:33:33;51857.72;;;-144.43;100.00
37486;BME280;23341;50.296;18.960;2023-04-19T02:38:39;51881.72;;;-144.43;100.00
37486;BME280;23341;50.296;18.960;2023-04-19T02:43:44;51915.72;;;-144.43;100.00
37486;BME280;23341;50.296;18.960;2023-04-19T02:48:48;51983.69;;;-144.43;100.00
37486;BME280;23341;50.296;18.960;2023-04-19T02:53:54;52005.69;;;-144.43;100.00
37486;BME280;23341;50.296;18.960;2023-04-19T02:58:59;51989.69;;;-144.43;100.00
37486;BME280;23341;50.296;18.960;2023-04-19T03:04:05;52049.69;;;-144.43;100.00
37486;BME280;23341;50.296;18.960;2023-04-19T03:09:11;52067.69;;;-144.43;100.00
37486;BME280;23341;50.296;18.960;2023-04-19T03:14:15;52041.69;;;-144.43;100.00
37486;BME280;23341;50.296;18.960;2023-04-19T03:19:19;52019.69;;;-144.43;100.00
37486;BME280;23341;50.296;18.960;2023-04-19T03:24:28;52015.69;;;-144.43;100.00
37486;BME280;23341;50.296;18.960;2023-04-19T03:29:38;52037.69;;;-144.43;100.00
37486;BME280;23341;50.296;18.960;2023-04-19T03:34:45;52063.69;;;-144.43;100.00
37486;BME280;23341;50.296;18.960;2023-04-19T03:39:52;52015.69;;;-144.43;100.00
37486;BME280;23341;50.296;18.960;2023-04-19T03:45:03;52025.69;;;-144.43;100.00
37486;BME280;23341;50.296;18.960;2023-04-19T03:50:12;52059.69;;;-144.43;100.00
37486;BME280;23341;50.296;18.960;2023-04-19T03:55:22;52023.69;;;-144.43;100.00
37486;BME280;23341;50.296;18.960;2023-04-19T04:00:26;52039.69;;;-144.43;100.00
37486;BME280;23341;50.296;18.960;2023-04-19T04:05:34;52025.69;;;-144.43;100.00
37486;BME280;23341;50.296;18.960;2023-04-19T04:10:40;52029.69;;;-144.43;100.00
37486;BME280;23341;50.296;18.960;2023-04-19T04:15:45;51985.69;;;-144.43;100.00
37486;BME280;23341;50.296;18.960;2023-04-19T04:20:51;52007.69;;;-144.43;100.00
37486;BME280;23341;50.296;18.960;2023-04-19T04:25:57;52001.69;;;-144.43;100.00
37486;BME280;23341;50.296;18.960;2023-04-19T04:31:14;51993.69;;;-144.43;100.00
37486;BME280;23341;50.296;18.960;2023-04-19T04:36:21;52031.69;;;-144.43;100.00
37486;BME280;23341;50.296;18.960;2023-04-19T04:41:28;51985.69;;;-144.43;100.00
37486;BME280;23341;50.296;18.960;2023-04-19T04:46:33;51975.69;;;-144.43;100.00
37486;BME280;23341;50.296;18.960;2023-04-19T04:51:37;51985.69;;;-144.43;100.00
37486;BME280;23341;50.296;18.960;2023-04-19T04:56:43;51993.69;;;-144.43;100.00
37486;BME280;23341;50.296;18.960;2023-04-19T05:01:49;52013.69;;;-144.43;100.00
37486;BME280;23341;50.296;18.960;2023-04-19T05:06:54;51989.69;;;-144.43;100.00
37486;BME280;23341;50.296;18.960;2023-04-19T05:12:03;52019.69;;;-144.43;100.00
37486;BME280;23341;50.296;18.960;2023-04-19T05:17:08;52031.69;;;-144.43;100.00
37486;BME280;23341;50.296;18.960;2023-04-19T05:22:13;51973.69;;;-144.43;100.00
37486;BME280;23341;50.296;18.960;2023-04-19T05:27:18;51981.69;;;-144.43;100.00
37486;BME280;23341;50.296;18.960;2023-04-19T05:32:23;51985.69;;;-144.43;100.00
37486;BME280;23341;50.296;18.960;2023-04-19T05:37:32;51985.69;;;-144.43;100.00
37486;BME280;23341;50.296;18.960;2023-04-19T05:42:38;51995.69;;;-144.43;100.00
37486;BME280;23341;50.296;18.960;2023-04-19T05:47:44;51899.72;;;-144.43;100.00
37486;BME280;23341;50.296;18.960;2023-04-19T05:53:09;51833.72;;;-144.43;100.00
37486;BME280;23341;50.296;18.960;2023-04-19T05:58:16;51779.72;;;-144.43;100.00
37486;BME280;23341;50.296;18.960;2023-04-19T06:03:20;51725.72;;;-144.43;100.00
37486;BME280;23341;50.296;18.960;2023-04-19T06:08:25;51601.72;;;-144.43;100.00
37486;BME280;23341;50.296;18.960;2023-04-19T06:13:31;51657.72;;;-144.43;100.00
37486;BME280;23341;50.296;18.960;2023-04-19T06:18:36;51717.72;;;-144.43;100.00
37486;BME280;23341;50.296;18.960;2023-04-19T06:23:40;51657.72;;;-144.43;100.00
37486;BME280;23341;50.296;18.960;2023-04-19T06:28:46;51513.75;;;-144.43;100.00
37486;BME280;23341;50.296;18.960;2023-04-19T06:33:51;51517.75;;;-144.43;100.00
37486;BME280;23341;50.296;18.960;2023-04-19T06:38:55;51545.75;;;-144.43;100.00
37486;BME280;23341;50.296;18.960;2023-04-19T06:44:00;51673.72;;;-144.43;100.00
37486;BME280;23341;50.296;18.960;2023-04-19T06:49:05;51649.72;;;-144.43;100.00
37486;BME280;23341;50.296;18.960;2023-04-19T06:54:09;51633.72;;;-144.43;100.00
37486;BME280;23341;50.296;18.960;2023-04-19T06:59:15;51649.72;;;-144.43;100.00
37486;BME280;23341;50.296;18.960;2023-04-19T07:04:21;51633.72;;;-144.43;100.00
37486;BME280;23341;50.296;18.960;2023-04-19T07:09:25;51549.72;;;-144.43;100.00
37486;BME280;23341;50.296;18.960;2023-04-19T07:14:31;51617.72;;;-144.43;100.00
37486;BME280;23341;50.296;18.960;2023-04-19T07:19:36;51659.72;;;-144.43;100.00
37486;BME280;23341;50.296;18.960;2023-04-19T07:24:40;51667.72;;;-144.43;100.00
37486;BME280;23341;50.296;18.960;2023-04-19T07:29:47;51673.72;;;-144.43;100.00
37486;BME280;23341;50.296;18.960;2023-04-19T07:34:52;51703.72;;;-144.43;100.00
37486;BME280;23341;50.296;18.960;2023-04-19T07:39:56;51701.72;;;-144.43;100.00
37486;BME280;23341;50.296;18.960;2023-04-19T07:45:02;51633.72;;;-144.43;100.00
37486;BME280;23341;50.296;18.960;2023-04-19T07:50:08;51497.75;;;-144.43;100.00
37486;BME280;23341;50.296;18.960;2023-04-19T07:55:13;51445.75;;;-144.43;100.00
37486;BME280;23341;50.296;18.960;2023-04-19T08:00:19;51339.78;;;-144.43;100.00
37486;BME280;23341;50.296;18.960;2023-04-19T08:05:24;51301.78;;;-144.43;100.00
37486;BME280;23341;50.296;18.960;2023-04-19T08:10:29;51325.78;;;-144.43;100.00
37486;BME280;23341;50.296;18.960;2023-04-19T08:15:35;51371.75;;;-144.43;100.00
37486;BME280;23341;50.296;18.960;2023-04-19T08:20:59;51377.75;;;-144.43;100.00
37486;BME280;23341;50.296;18.960;2023-04-19T08:26:03;51251.78;;;-144.43;100.00
